Cloncurry, Australia
Current Conditions -  °F | °C
As of 3:00 AM on Sunday 26 Oct 2014 (Local Time) from YBMA Reporting Station
Clear Clear  
Wind Chill: 84°   Ceiling: Unl
Heat Index: 84°   Visibility: 6mi
Dew Point: 36°   Wind: 12mph
Humidity: 18%   Direction: 90°E
Pressure: 29.97"   Gusts: NA
Location:  20.7°S, 140.51°E
Report Text: YBMA 251700Z AUTO 09010KT 9999 // NCD 29/02 Q1015
Loading
Personal Weather Stations






























Interactive Weather Map New forecast layout! Learn more

10-Day Weather Forecast

Advertisements
Track Severe Weather on mobile